Time;durP1;ratioP1;P1;durP2;ratioP2;P2;SDS_P1;SDS_P2;PMS_P1;PMS_P2;Temp;Humidity;BMP_temperature;BMP_pressure;BME280_temperature;BME280_humidity;BME280_pressure;Samples;Min_cycle;Max_cycle;Signal;HPM_P1;HPM_P2
2023/05/04 00:00:26;;;;;;;;;;;;;;;19.01;68.24;99098.50;2053155;28;19930;-45
2023/05/04 00:01:28;;;;;;;;;;;;;;;19.02;68.28;99100.97;2054582;28;19940;-45
2023/05/04 00:02:29;;;;;;;;;;;;;;;19.01;68.33;99093.94;2052900;28;19930;-45
2023/05/04 00:03:30;;;;;;;;;;;;;;;19.02;68.07;99100.16;2055066;28;19934;-43
2023/05/04 00:04:31;;;;;;;;;;;;;;;19.02;68.39;99094.78;2052782;28;21627;-44
2023/05/04 00:05:31;;;;;;;;;;;;;;;19.02;68.28;99097.47;2053280;28;19926;-45
2023/05/04 00:06:33;;;;;;;;;;;;;;;19.03;68.36;99093.72;2052519;28;19993;-45
2023/05/04 00:07:33;;;;;;;;;;;;;;;19.01;68.20;99095.81;2052995;28;20403;-45
2023/05/04 00:08:35;;;;;;;;;;;;;;;19.04;67.92;99095.41;2050093;28;19929;-43
2023/05/04 00:09:35;;;;;;;;;;;;;;;19.02;68.12;99092.91;2054414;28;20376;-45
2023/05/04 00:10:37;;;;;;;;;;;;;;;19.03;68.19;99099.09;2052671;28;19930;-44
2023/05/04 00:11:37;;;;;;;;;;;;;;;19.02;68.22;99081.34;2053777;28;20372;-46
2023/05/04 00:12:41;;;;;;;;;;;;;;;19.02;68.44;99086.72;2053602;28;19984;-43
2023/05/04 00:13:41;;;;;;;;;;;;;;;19.03;68.50;99091.03;2051845;28;19934;-46
2023/05/04 00:14:43;;;;;;;;;;;;;;;19.03;68.16;99091.91;2054499;28;19992;-45
2023/05/04 00:15:43;;;;;;;;;;;;;;;19.02;68.33;99087.53;2053386;28;19937;-43
2023/05/04 00:16:46;;;;;;;;;;;;;;;19.03;68.07;99085.66;2053188;28;19933;-44
2023/05/04 00:17:47;;;;;;;;;;;;;;;19.02;67.85;99081.34;2055267;28;19927;-45
2023/05/04 00:18:48;;;;;;;;;;;;;;;19.03;68.43;99081.16;2052721;28;19929;-44
2023/05/04 00:19:49;;;;;;;;;;;;;;;19.03;67.84;99085.66;2053948;28;19929;-43
2023/05/04 00:20:50;;;;;;;;;;;;;;;19.03;68.26;99082.97;2054634;28;20392;-47
2023/05/04 00:21:50;;;;;;;;;;;;;;;19.02;68.05;99081.34;2053296;28;19984;-42
2023/05/04 00:22:52;;;;;;;;;;;;;;;19.04;68.44;99084.66;2055618;28;19980;-44
2023/05/04 00:23:52;;;;;;;;;;;;;;;19.02;68.42;99084.03;2053781;28;19984;-44
2023/05/04 00:24:54;;;;;;;;;;;;;;;19.01;67.87;99079.69;2055525;28;19930;-43
2023/05/04 00:25:57;;;;;;;;;;;;;;;19.01;68.22;99082.38;2052763;28;19984;-44
2023/05/04 00:26:58;;;;;;;;;;;;;;;19.02;68.00;99078.63;2053983;28;19926;-44
2023/05/04 00:27:58;;;;;;;;;;;;;;;19.01;68.79;99077.81;2052618;28;20293;-44
2023/05/04 00:29:00;;;;;;;;;;;;;;;19.02;68.55;99075.94;2055218;28;19984;-44
2023/05/04 00:30:00;;;;;;;;;;;;;;;19.02;68.37;99073.25;2056055;28;19948;-46
2023/05/04 00:31:02;;;;;;;;;;;;;;;19.03;68.50;99080.28;2056572;28;19934;-44
2023/05/04 00:32:04;;;;;;;;;;;;;;;19.02;68.75;99079.47;2053901;28;19930;-45
2023/05/04 00:33:05;;;;;;;;;;;;;;;19.01;68.44;99075.13;2053694;28;19941;-45
2023/05/04 00:34:06;;;;;;;;;;;;;;;19.02;68.09;99078.63;2054844;28;19969;-47
2023/05/04 00:35:08;;;;;;;;;;;;;;;19.01;68.50;99079.69;2055352;28;20380;-44
2023/05/04 00:36:08;;;;;;;;;;;;;;;19.01;68.32;99077.81;2046249;28;19934;-43
2023/05/04 00:37:10;;;;;;;;;;;;;;;19.03;68.25;99074.91;2053109;28;19932;-44
2023/05/04 00:38:10;;;;;;;;;;;;;;;19.02;68.10;99070.56;2053009;28;19930;-45
2023/05/04 00:39:11;;;;;;;;;;;;;;;19.01;68.86;99071.63;2053997;28;19930;-43
2023/05/04 00:40:12;;;;;;;;;;;;;;;19.00;68.82;99072.63;2056147;28;19929;-43
2023/05/04 00:41:13;;;;;;;;;;;;;;;19.01;68.88;99071.63;2054607;28;20046;-47
2023/05/04 00:42:14;;;;;;;;;;;;;;;19.00;68.68;99068.09;2053459;28;19961;-46
2023/05/04 00:43:15;;;;;;;;;;;;;;;19.01;68.48;99071.63;2054143;28;19927;-48
2023/05/04 00:44:16;;;;;;;;;;;;;;;19.01;68.53;99069.75;2054185;28;19993;-49
2023/05/04 00:45:17;;;;;;;;;;;;;;;19.01;68.66;99077.00;2053409;28;19989;-47
2023/05/04 00:46:18;;;;;;;;;;;;;;;19.02;68.82;99073.25;2051706;28;19980;-47
2023/05/04 00:47:21;;;;;;;;;;;;;;;19.01;68.59;99071.63;2053963;28;19930;-45
2023/05/04 00:48:21;;;;;;;;;;;;;;;19.00;68.66;99075.31;2054587;28;19941;-47
2023/05/04 00:49:23;;;;;;;;;;;;;;;19.01;68.85;99074.31;2054148;28;19930;-44
2023/05/04 00:50:25;;;;;;;;;;;;;;;19.01;68.70;99077.81;2054429;28;19934;-46
2023/05/04 00:51:27;;;;;;;;;;;;;;;19.01;68.68;99082.38;2053713;28;19929;-44
2023/05/04 00:52:28;;;;;;;;;;;;;;;19.02;68.68;99075.94;2054981;28;20009;-46
2023/05/04 00:53:30;;;;;;;;;;;;;;;19.02;67.93;99079.47;2054809;28;19933;-50
2023/05/04 00:54:30;;;;;;;;;;;;;;;19.02;69.44;99084.03;2056010;28;19984;-46
2023/05/04 00:55:32;;;;;;;;;;;;;;;19.01;69.35;99082.38;2055283;28;19933;-50
2023/05/04 00:56:37;;;;;;;;;;;;;;;19.02;69.09;99078.63;2053659;28;19938;-50
2023/05/04 00:57:39;;;;;;;;;;;;;;;19.02;69.04;99084.03;2053900;28;19926;-46
2023/05/04 00:58:39;;;;;;;;;;;;;;;19.03;69.29;99085.66;2055477;28;20392;-46
2023/05/04 00:59:41;;;;;;;;;;;;;;;19.01;69.12;99079.69;2054841;28;19929;-44
2023/05/04 01:00:41;;;;;;;;;;;;;;;19.02;69.15;99079.47;2056142;28;19934;-44
2023/05/04 01:01:43;;;;;;;;;;;;;;;19.01;69.17;99080.50;2054321;28;19977;-45
2023/05/04 01:02:44;;;;;;;;;;;;;;;19.01;68.33;99077.81;2053749;28;20347;-46
2023/05/04 01:03:46;;;;;;;;;;;;;;;19.01;68.79;99079.69;2055086;28;19938;-48
2023/05/04 01:04:48;;;;;;;;;;;;;;;19.01;69.01;99075.13;2053440;28;19930;-47
2023/05/04 01:05:52;;;;;;;;;;;;;;;19.02;69.41;99079.47;2053456;28;19988;-45
2023/05/04 01:06:58;;;;;;;;;;;;;;;19.01;69.28;99071.63;2050097;28;19930;-46
2023/05/04 01:08:03;;;;;;;;;;;;;;;19.01;69.14;99079.69;2055201;28;19934;-49
2023/05/04 01:09:09;;;;;;;;;;;;;;;19.00;69.02;99080.69;2052996;28;19941;-45
2023/05/04 01:10:12;;;;;;;;;;;;;;;19.00;69.35;99081.53;2056117;28;20402;-46
2023/05/04 01:11:20;;;;;;;;;;;;;;;19.01;69.04;99083.19;2055682;28;20020;-44
2023/05/04 01:12:25;;;;;;;;;;;;;;;19.02;69.39;99084.84;2053850;28;19934;-45
2023/05/04 01:13:28;;;;;;;;;;;;;;;19.01;69.21;99077.00;2055489;28;20593;-49
2023/05/04 01:14:29;;;;;;;;;;;;;;;19.01;68.70;99077.00;2055659;28;20106;-44
2023/05/04 01:15:31;;;;;;;;;;;;;;;19.02;69.52;99073.25;2054002;28;19965;-45
2023/05/04 01:16:32;;;;;;;;;;;;;;;19.02;68.94;99073.25;2052752;28;19929;-47
2023/05/04 01:17:33;;;;;;;;;;;;;;;19.01;69.51;99077.81;2052914;28;22008;-46
2023/05/04 01:18:35;;;;;;;;;;;;;;;19.01;68.55;99072.44;2052022;28;21031;-46
2023/05/04 01:19:37;;;;;;;;;;;;;;;19.01;69.34;99071.63;2054207;28;20478;-49
2023/05/04 01:20:37;;;;;;;;;;;;;;;19.01;69.30;99074.31;2053224;28;19934;-44
2023/05/04 01:21:40;;;;;;;;;;;;;;;19.01;69.41;99072.44;2055187;28;19929;-46
2023/05/04 01:22:41;;;;;;;;;;;;;;;19.02;69.78;99073.25;2054306;28;20009;-48
2023/05/04 01:23:42;;;;;;;;;;;;;;;19.01;70.11;99071.63;2054284;28;20391;-48
2023/05/04 01:24:43;;;;;;;;;;;;;;;19.00;69.52;99075.31;2053673;28;19930;-47
2023/05/04 01:25:46;;;;;;;;;;;;;;;19.01;69.51;99074.31;2052901;28;19929;-45
2023/05/04 01:26:53;;;;;;;;;;;;;;;19.01;69.40;99072.44;2054033;28;19930;-48
2023/05/04 01:27:56;;;;;;;;;;;;;;;19.00;69.50;99073.47;2053757;28;20435;-49
2023/05/04 01:29:00;;;;;;;;;;;;;;;18.98;69.33;99067.47;2054904;28;19926;-48
2023/05/04 01:30:02;;;;;;;;;;;;;;;19.00;69.58;99072.63;2052794;28;20334;-46
2023/05/04 01:31:05;;;;;;;;;;;;;;;19.01;69.73;99068.94;2055550;28;19949;-49
2023/05/04 01:32:07;;;;;;;;;;;;;;;19.01;69.93;99077.00;2053091;28;20289;-46
2023/05/04 01:33:08;;;;;;;;;;;;;;;19.00;69.63;99073.47;2053365;28;20392;-46
2023/05/04 01:34:09;;;;;;;;;;;;;;;19.00;69.79;99073.47;2053985;28;20412;-50
2023/05/04 01:35:12;;;;;;;;;;;;;;;19.00;69.64;99073.47;2053494;28;19932;-48
2023/05/04 01:36:12;;;;;;;;;;;;;;;19.00;69.40;99075.31;2052400;28;19938;-49
2023/05/04 01:37:15;;;;;;;;;;;;;;;18.99;69.68;99077.16;2054766;28;19938;-48
2023/05/04 01:38:16;;;;;;;;;;;;;;;18.98;69.76;99076.34;2055749;28;20016;-47
2023/05/04 01:39:17;;;;;;;;;;;;;;;18.99;70.00;99079.84;2053793;28;19929;-46
2023/05/04 01:40:18;;;;;;;;;;;;;;;19.00;69.40;99075.31;2052989;28;19930;-44
2023/05/04 01:41:20;;;;;;;;;;;;;;;19.00;69.60;99076.16;2053521;28;19991;-49
2023/05/04 01:42:20;;;;;;;;;;;;;;;19.00;69.93;99069.94;2055741;28;19930;-47
2023/05/04 01:43:22;;;;;;;;;;;;;;;19.01;69.87;99077.00;2054055;28;19964;-49
2023/05/04 01:44:22;;;;;;;;;;;;;;;19.00;69.44;99078.00;2052738;28;19984;-48
2023/05/04 01:45:24;;;;;;;;;;;;;;;19.00;69.54;99073.47;2054222;28;19943;-46
2023/05/04 01:46:24;;;;;;;;;;;;;;;19.00;69.42;99078.00;2055523;28;19979;-45
2023/05/04 01:47:25;;;;;;;;;;;;;;;19.00;69.62;99072.63;2053709;28;19993;-50
2023/05/04 01:48:26;;;;;;;;;;;;;;;19.00;69.96;99069.94;2053238;28;19957;-45
2023/05/04 01:49:27;;;;;;;;;;;;;;;19.00;69.64;99073.47;2053725;28;19938;-45
2023/05/04 01:50:28;;;;;;;;;;;;;;;18.99;69.53;99074.47;2054633;28;19947;-49
2023/05/04 01:51:29;;;;;;;;;;;;;;;19.00;69.61;99076.16;2053956;28;19950;-49
2023/05/04 01:52:31;;;;;;;;;;;;;;;19.00;68.98;99070.78;2053621;28;19933;-49
2023/05/04 01:53:32;;;;;;;;;;;;;;;18.98;69.49;99068.28;2056285;28;20067;-48
2023/05/04 01:54:33;;;;;;;;;;;;;;;19.00;69.71;99080.69;2056490;28;20384;-45
2023/05/04 01:55:34;;;;;;;;;;;;;;;18.98;69.44;99073.66;2054924;28;19930;-44
2023/05/04 01:56:35;;;;;;;;;;;;;;;18.99;69.65;99077.16;2054808;28;19984;-49
2023/05/04 01:57:36;;;;;;;;;;;;;;;18.98;69.74;99076.34;2055418;28;19989;-47
2023/05/04 01:58:37;;;;;;;;;;;;;;;18.98;69.12;99076.34;2055455;28;19937;-45
2023/05/04 01:59:38;;;;;;;;;;;;;;;18.98;69.98;99076.34;2054975;28;20297;-44
2023/05/04 02:00:39;;;;;;;;;;;;;;;18.98;69.40;99072.84;2056065;28;19941;-46
2023/05/04 02:01:40;;;;;;;;;;;;;;;19.00;69.59;99069.94;2057653;28;20443;-44
2023/05/04 02:02:41;;;;;;;;;;;;;;;18.99;69.22;99074.47;2056439;28;19930;-47
2023/05/04 02:03:43;;;;;;;;;;;;;;;18.99;69.21;99079.84;2055275;28;19941;-47
2023/05/04 02:04:43;;;;;;;;;;;;;;;18.97;69.40;99074.69;2054914;28;19980;-48
2023/05/04 02:05:45;;;;;;;;;;;;;;;18.97;69.47;99080.06;2055485;28;19939;-51
2023/05/04 02:06:46;;;;;;;;;;;;;;;18.98;69.43;99079.03;2055385;28;20390;-48
2023/05/04 02:07:49;;;;;;;;;;;;;;;18.98;69.05;99081.72;2055937;28;20257;-46
2023/05/04 02:08:50;;;;;;;;;;;;;;;18.97;69.93;99077.38;2057014;28;20029;-45
2023/05/04 02:09:51;;;;;;;;;;;;;;;18.98;69.41;99072.84;2055014;28;19926;-50
2023/05/04 02:10:52;;;;;;;;;;;;;;;18.98;69.02;99072.84;2055733;28;19926;-49
2023/05/04 02:11:53;;;;;;;;;;;;;;;18.97;69.13;99066.63;2054588;28;19984;-47
2023/05/04 02:12:53;;;;;;;;;;;;;;;18.98;69.04;99070.97;2054041;28;19984;-46
2023/05/04 02:13:55;;;;;;;;;;;;;;;18.98;69.53;99067.47;2055187;28;19934;-45
2023/05/04 02:14:55;;;;;;;;;;;;;;;18.96;69.46;99064.13;2056155;28;19930;-44
2023/05/04 02:15:57;;;;;;;;;;;;;;;18.96;69.33;99064.13;2056779;28;19981;-48
2023/05/04 02:16:57;;;;;;;;;;;;;;;18.96;69.56;99064.94;2056277;28;19927;-46
2023/05/04 02:17:59;;;;;;;;;;;;;;;18.96;69.73;99070.31;2054781;28;19984;-49
2023/05/04 02:18:59;;;;;;;;;;;;;;;18.96;69.25;99070.31;2056368;28;19930;-46
2023/05/04 02:20:00;;;;;;;;;;;;;;;18.95;69.57;99066.00;2053819;28;19996;-48
2023/05/04 02:21:02;;;;;;;;;;;;;;;18.96;69.84;99064.94;2057105;28;19983;-49
2023/05/04 02:22:02;;;;;;;;;;;;;;;18.96;69.59;99070.31;2055614;28;20355;-46
2023/05/04 02:23:05;;;;;;;;;;;;;;;18.97;69.05;99072.00;2055891;28;20026;-45
2023/05/04 02:24:06;;;;;;;;;;;;;;;18.97;69.36;99071.16;2054878;28;19949;-47
2023/05/04 02:25:08;;;;;;;;;;;;;;;18.97;68.86;99065.78;2052148;28;19937;-47
2023/05/04 02:26:08;;;;;;;;;;;;;;;18.97;68.95;99068.47;2055333;28;20023;-45
2023/05/04 02:27:10;;;;;;;;;;;;;;;18.96;68.82;99064.13;2055452;28;20416;-46
2023/05/04 02:28:10;;;;;;;;;;;;;;;18.95;69.15;99068.69;2053134;28;19926;-45
2023/05/04 02:29:12;;;;;;;;;;;;;;;18.97;69.10;99068.47;2055404;28;20051;-46
2023/05/04 02:30:12;;;;;;;;;;;;;;;18.96;69.82;99073.00;2057240;28;19941;-49
2023/05/04 02:31:14;;;;;;;;;;;;;;;18.97;69.55;99074.69;2055748;28;19934;-44
2023/05/04 02:32:17;;;;;;;;;;;;;;;18.96;69.82;99070.31;2054790;28;20011;-48
2023/05/04 02:33:19;;;;;;;;;;;;;;;18.97;69.03;99077.38;2055062;28;19968;-46
2023/05/04 02:34:19;;;;;;;;;;;;;;;18.97;69.28;99072.00;2054902;28;19979;-51
2023/05/04 02:35:21;;;;;;;;;;;;;;;18.96;69.07;99073.00;2055848;28;19981;-52
2023/05/04 02:36:21;;;;;;;;;;;;;;;18.97;68.41;99066.63;2054921;28;19979;-49
2023/05/04 02:37:22;;;;;;;;;;;;;;;18.97;68.91;99071.16;2056702;28;19941;-48
2023/05/04 02:38:24;;;;;;;;;;;;;;;18.97;69.42;99069.31;2055479;28;20454;-52
2023/05/04 02:39:26;;;;;;;;;;;;;;;18.98;69.48;99067.47;2057916;28;20415;-46
2023/05/04 02:40:26;;;;;;;;;;;;;;;18.97;68.77;99066.63;2055451;28;19984;-49
2023/05/04 02:41:28;;;;;;;;;;;;;;;18.97;69.22;99063.94;2056421;28;19977;-46
2023/05/04 02:42:28;;;;;;;;;;;;;;;18.96;69.45;99062.25;2055111;28;19972;-48
2023/05/04 02:43:29;;;;;;;;;;;;;;;18.96;68.88;99064.94;2054586;28;19926;-45
2023/05/04 02:44:30;;;;;;;;;;;;;;;18.96;68.99;99059.56;2053041;28;20369;-45
2023/05/04 02:45:31;;;;;;;;;;;;;;;18.96;68.46;99059.56;2052607;28;19930;-46
2023/05/04 02:46:32;;;;;;;;;;;;;;;18.96;68.75;99059.56;2052936;28;19927;-48
2023/05/04 02:47:33;;;;;;;;;;;;;;;18.96;68.21;99064.13;2054642;28;19933;-44
2023/05/04 02:48:34;;;;;;;;;;;;;;;18.95;68.76;99063.31;2053690;28;19985;-46
2023/05/04 02:49:35;;;;;;;;;;;;;;;18.96;68.87;99064.13;2052623;28;19989;-46
2023/05/04 02:50:36;;;;;;;;;;;;;;;18.94;68.97;99061.66;2054592;28;19930;-45
2023/05/04 02:51:38;;;;;;;;;;;;;;;18.94;69.21;99061.66;2056005;28;19938;-49
2023/05/04 02:52:38;;;;;;;;;;;;;;;18.94;69.70;99060.78;2055138;28;20475;-48
2023/05/04 02:53:41;;;;;;;;;;;;;;;18.94;69.19;99075.09;2053505;28;19957;-47
2023/05/04 02:54:41;;;;;;;;;;;;;;;18.93;69.72;99064.53;2054313;28;20334;-46
2023/05/04 02:55:43;;;;;;;;;;;;;;;18.93;69.53;99070.72;2056359;28;19925;-48
2023/05/04 02:56:43;;;;;;;;;;;;;;;18.94;69.29;99064.34;2055518;28;24353;-47
2023/05/04 02:57:44;;;;;;;;;;;;;;;18.96;69.16;99070.31;2054319;28;19934;-49
2023/05/04 02:58:45;;;;;;;;;;;;;;;18.94;69.09;99067.03;2053724;28;20355;-50
2023/05/04 02:59:46;;;;;;;;;;;;;;;18.94;68.92;99060.78;2052710;28;19930;-50
2023/05/04 03:00:51;;;;;;;;;;;;;;;18.95;68.68;99068.69;2053640;28;20511;-47
2023/05/04 03:01:53;;;;;;;;;;;;;;;18.94;69.52;99069.72;2052167;28;19926;-50
2023/05/04 03:02:53;;;;;;;;;;;;;;;18.93;69.43;99062.66;2054138;28;19926;-47
2023/05/04 03:03:55;;;;;;;;;;;;;;;18.93;69.70;99065.34;2053798;28;19926;-50
2023/05/04 03:04:55;;;;;;;;;;;;;;;18.95;69.50;99067.84;2053880;28;19926;-47
2023/05/04 03:05:56;;;;;;;;;;;;;;;18.92;69.40;99058.31;2058028;28;19984;-47
2023/05/04 03:06:57;;;;;;;;;;;;;;;18.92;69.17;99062.88;2056918;28;19925;-46
2023/05/04 03:07:58;;;;;;;;;;;;;;;18.92;69.72;99066.38;2052400;28;19930;-43
2023/05/04 03:09:00;;;;;;;;;;;;;;;18.93;69.02;99064.53;2054616;28;19930;-47
2023/05/04 03:10:02;;;;;;;;;;;;;;;18.93;68.55;99067.22;2054923;28;19940;-45
2023/05/04 03:11:02;;;;;;;;;;;;;;;18.92;68.79;99069.06;2053901;28;19930;-46
2023/05/04 03:12:04;;;;;;;;;;;;;;;18.93;69.34;99067.22;2053161;28;20528;-47
2023/05/04 03:13:05;;;;;;;;;;;;;;;18.94;69.00;99074.22;2052824;28;20557;-46
2023/05/04 03:14:06;;;;;;;;;;;;;;;18.93;68.84;99070.72;2055513;28;19941;-45
2023/05/04 03:15:07;;;;;;;;;;;;;;;18.92;69.56;99065.56;2052989;28;19929;-45
2023/05/04 03:16:09;;;;;;;;;;;;;;;18.93;68.92;99067.22;2052486;28;20555;-48
2023/05/04 03:17:10;;;;;;;;;;;;;;;18.93;69.28;99064.53;2053470;28;20021;-46
2023/05/04 03:18:11;;;;;;;;;;;;;;;18.92;68.68;99070.94;2053704;28;20699;-49
2023/05/04 03:19:12;;;;;;;;;;;;;;;18.92;68.89;99069.06;2054815;28;19982;-44
2023/05/04 03:20:13;;;;;;;;;;;;;;;18.93;69.40;99069.91;2053296;28;19934;-43
2023/05/04 03:21:14;;;;;;;;;;;;;;;18.92;68.94;99068.25;2052896;28;19934;-45
2023/05/04 03:22:15;;;;;;;;;;;;;;;18.93;68.58;99075.28;2054937;28;20066;-43
2023/05/04 03:23:16;;;;;;;;;;;;;;;18.91;69.65;99072.75;2054288;28;20399;-45
2023/05/04 03:24:19;;;;;;;;;;;;;;;18.91;69.31;99062.00;2053613;28;19934;-45
2023/05/04 03:25:19;;;;;;;;;;;;;;;18.91;68.95;99070.06;2055889;28;20400;-44
2023/05/04 03:26:21;;;;;;;;;;;;;;;18.91;69.29;99061.19;2053837;28;20029;-47
2023/05/04 03:27:21;;;;;;;;;;;;;;;18.90;68.95;99073.81;2051206;28;20197;-46
2023/05/04 03:28:23;;;;;;;;;;;;;;;18.90;69.13;99068.44;2053015;28;19980;-44
2023/05/04 03:29:23;;;;;;;;;;;;;;;18.90;69.28;99075.66;2052742;28;19960;-45
2023/05/04 03:30:24;;;;;;;;;;;;;;;18.91;68.95;99077.31;2054831;28;20048;-44
2023/05/04 03:31:25;;;;;;;;;;;;;;;18.90;69.84;99070.28;2053831;28;19938;-45
2023/05/04 03:32:27;;;;;;;;;;;;;;;18.90;69.61;99075.66;2053372;28;19934;-44
2023/05/04 03:33:27;;;;;;;;;;;;;;;18.89;68.71;99077.53;2054176;28;19930;-44
2023/05/04 03:34:29;;;;;;;;;;;;;;;18.90;69.57;99070.28;2054105;28;19984;-43
2023/05/04 03:35:29;;;;;;;;;;;;;;;18.89;69.31;99082.91;2054334;28;19942;-45
2023/05/04 03:36:31;;;;;;;;;;;;;;;18.91;69.08;99080.00;2053345;28;19944;-44
2023/05/04 03:37:31;;;;;;;;;;;;;;;18.88;68.98;99078.53;2056042;28;20025;-43
2023/05/04 03:38:32;;;;;;;;;;;;;;;18.88;69.21;99083.91;2052615;28;19952;-43
2023/05/04 03:39:34;;;;;;;;;;;;;;;18.88;68.70;99081.22;2053599;28;19926;-45
2023/05/04 03:40:36;;;;;;;;;;;;;;;18.89;69.36;99082.91;2053933;28;19926;-44
2023/05/04 03:41:36;;;;;;;;;;;;;;;18.89;69.14;99082.06;2056961;28;19925;-44
2023/05/04 03:42:38;;;;;;;;;;;;;;;18.87;68.63;99082.25;2055658;28;19934;-45
2023/05/04 03:43:38;;;;;;;;;;;;;;;18.89;68.87;99085.59;2053138;28;20016;-46
2023/05/04 03:44:40;;;;;;;;;;;;;;;18.88;69.18;99083.91;2055000;28;19940;-45
2023/05/04 03:45:40;;;;;;;;;;;;;;;18.88;69.71;99086.59;2055608;28;20597;-44
2023/05/04 03:46:41;;;;;;;;;;;;;;;18.89;68.41;99092.81;2054895;28;19926;-45
2023/05/04 03:47:42;;;;;;;;;;;;;;;18.88;69.04;99089.28;2056309;28;19925;-45
2023/05/04 03:48:43;;;;;;;;;;;;;;;18.87;68.81;99087.63;2054924;28;19980;-43
2023/05/04 03:49:44;;;;;;;;;;;;;;;18.87;68.79;99087.63;2053776;28;19988;-45
2023/05/04 03:50:45;;;;;;;;;;;;;;;18.88;69.18;99088.47;2055363;28;20363;-44
2023/05/04 03:51:46;;;;;;;;;;;;;;;18.88;68.75;99089.28;2053546;28;20062;-45
2023/05/04 03:52:47;;;;;;;;;;;;;;;18.88;69.18;99089.28;2054004;28;20375;-44
2023/05/04 03:53:47;;;;;;;;;;;;;;;18.87;69.25;99092.19;2054822;28;19933;-45
2023/05/04 03:54:50;;;;;;;;;;;;;;;18.87;69.29;99098.38;2054819;28;19926;-43
2023/05/04 03:55:51;;;;;;;;;;;;;;;18.87;68.50;99097.56;2054431;28;19933;-44
2023/05/04 03:56:52;;;;;;;;;;;;;;;18.87;68.39;99095.69;2054165;28;19977;-45
2023/05/04 03:57:53;;;;;;;;;;;;;;;18.88;68.46;99096.53;2053759;28;20003;-42
2023/05/04 03:58:54;;;;;;;;;;;;;;;18.86;69.10;99096.72;2055374;28;19981;-45
2023/05/04 03:59:54;;;;;;;;;;;;;;;18.86;68.78;99091.34;2054503;28;20457;-44
2023/05/04 04:00:56;;;;;;;;;;;;;;;18.85;69.15;99092.34;2055371;28;19988;-44
2023/05/04 04:01:56;;;;;;;;;;;;;;;18.85;69.36;99100.41;2054179;28;19930;-45
2023/05/04 04:02:58;;;;;;;;;;;;;;;18.85;68.56;99096.91;2055691;28;19992;-44
2023/05/04 04:03:58;;;;;;;;;;;;;;;18.85;68.96;99089.69;2055695;28;19987;-43
2023/05/04 04:05:00;;;;;;;;;;;;;;;18.85;68.77;99095.06;2054937;28;19993;-44
2023/05/04 04:06:02;;;;;;;;;;;;;;;18.85;68.98;99095.06;2056240;28;19933;-44
2023/05/04 04:07:03;;;;;;;;;;;;;;;18.85;68.41;99100.41;2054543;28;20588;-45
2023/05/04 04:08:04;;;;;;;;;;;;;;;18.85;69.12;99096.91;2054311;28;19926;-45
2023/05/04 04:09:06;;;;;;;;;;;;;;;18.85;68.12;99097.75;2056262;28;20050;-44
2023/05/04 04:10:09;;;;;;;;;;;;;;;18.85;68.75;99095.06;2054316;28;20903;-44
2023/05/04 04:11:10;;;;;;;;;;;;;;;18.85;68.40;99100.41;2054361;28;19976;-44
2023/05/04 04:12:11;;;;;;;;;;;;;;;18.85;69.18;99099.59;2055059;28;19929;-46
2023/05/04 04:13:12;;;;;;;;;;;;;;;18.85;68.43;99094.22;2054766;28;20003;-46
2023/05/04 04:14:12;;;;;;;;;;;;;;;18.83;68.89;99091.72;2054444;28;19930;-45
2023/05/04 04:15:14;;;;;;;;;;;;;;;18.84;68.55;99098.78;2053102;28;19926;-45
2023/05/04 04:16:14;;;;;;;;;;;;;;;18.84;68.40;99098.78;2053833;28;21623;-45
2023/05/04 04:17:16;;;;;;;;;;;;;;;18.86;69.01;99098.56;2054840;28;19937;-47
2023/05/04 04:18:16;;;;;;;;;;;;;;;18.84;68.58;99101.47;2054187;28;20630;-47
2023/05/04 04:19:18;;;;;;;;;;;;;;;18.85;68.85;99104.97;2055218;28;20408;-46
2023/05/04 04:20:18;;;;;;;;;;;;;;;18.87;68.97;99098.38;2054221;28;20861;-44
2023/05/04 04:21:20;;;;;;;;;;;;;;;18.90;68.53;99100.69;2053617;28;19997;-44
2023/05/04 04:22:20;;;;;;;;;;;;;;;18.91;68.68;99098.81;2054229;28;19926;-45
2023/05/04 04:23:22;;;;;;;;;;;;;;;18.90;68.39;99100.69;2053468;28;19937;-44
2023/05/04 04:24:22;;;;;;;;;;;;;;;18.88;68.50;99099.22;2055218;28;19945;-45
2023/05/04 04:25:25;;;;;;;;;;;;;;;18.86;68.81;99102.09;2053475;28;19933;-44
2023/05/04 04:26:27;;;;;;;;;;;;;;;18.86;68.25;99104.78;2054386;28;19926;-42
2023/05/04 04:27:28;;;;;;;;;;;;;;;18.83;68.36;99097.09;2054214;28;19988;-44
2023/05/04 04:28:28;;;;;;;;;;;;;;;18.83;68.39;99102.47;2054558;28;19930;-43
2023/05/04 04:29:30;;;;;;;;;;;;;;;18.84;68.52;99100.63;2054544;28;19929;-44
2023/05/04 04:30:30;;;;;;;;;;;;;;;18.82;68.58;99105.38;2053972;28;19980;-45
2023/05/04 04:31:32;;;;;;;;;;;;;;;18.83;68.43;99096.25;2055776;28;19984;-45
2023/05/04 04:32:32;;;;;;;;;;;;;;;18.81;68.02;99099.16;2053887;28;19985;-43
2023/05/04 04:33:35;;;;;;;;;;;;;;;18.81;68.70;99096.47;2051451;28;20487;-42
2023/05/04 04:34:35;;;;;;;;;;;;;;;18.81;68.76;99099.16;2048872;28;20426;-48
2023/05/04 04:35:37;;;;;;;;;;;;;;;18.86;68.89;99103.94;2052397;28;19926;-45
2023/05/04 04:36:37;;;;;;;;;;;;;;;18.91;68.64;99105.03;2048682;28;20008;-44
2023/05/04 04:37:39;;;;;;;;;;;;;;;18.95;68.83;99100.94;2031799;28;20376;-44
2023/05/04 04:38:39;;;;;;;;;;;;;;;18.98;69.13;99110.47;2050492;28;20277;-44
2023/05/04 04:39:41;;;;;;;;;;;;;;;19.02;68.87;99102.84;2048562;28;19996;-45
2023/05/04 04:40:42;;;;;;;;;;;;;;;18.96;68.98;99101.75;2049501;28;20376;-46
2023/05/04 04:41:44;;;;;;;;;;;;;;;18.93;68.99;99102.97;2039301;28;19936;-43
2023/05/04 04:42:45;;;;;;;;;;;;;;;18.90;68.66;99100.69;2053927;28;20022;-44
2023/05/04 04:43:46;;;;;;;;;;;;;;;18.88;68.69;99102.72;2052840;28;20736;-44
2023/05/04 04:44:48;;;;;;;;;;;;;;;18.86;68.81;99107.47;2056542;28;19929;-45
2023/05/04 04:45:49;;;;;;;;;;;;;;;18.84;68.65;99104.16;2052916;28;19929;-44
2023/05/04 04:46:50;;;;;;;;;;;;;;;18.86;68.50;99112.00;2051591;28;19930;-44
2023/05/04 04:47:51;;;;;;;;;;;;;;;18.84;68.13;99104.16;2050953;28;19936;-44
2023/05/04 04:48:53;;;;;;;;;;;;;;;18.83;68.51;99117.75;2053054;28;19983;-44
2023/05/04 04:49:54;;;;;;;;;;;;;;;18.81;69.04;99109.91;2050102;28;19988;-43
2023/05/04 04:50:55;;;;;;;;;;;;;;;18.79;68.73;99111.94;2049331;28;19937;-45
2023/05/04 04:51:56;;;;;;;;;;;;;;;18.80;68.30;99116.28;2044712;28;20072;-45
2023/05/04 04:52:57;;;;;;;;;;;;;;;18.81;68.17;99114.47;2050708;28;19930;-44
2023/05/04 04:53:58;;;;;;;;;;;;;;;18.81;68.84;99109.09;2047884;28;19976;-43
2023/05/04 04:54:59;;;;;;;;;;;;;;;18.80;68.51;99110.91;2044890;28;19929;-43
2023/05/04 04:56:01;;;;;;;;;;;;;;;18.80;68.58;99105.53;2048696;28;19933;-43
2023/05/04 04:57:02;;;;;;;;;;;;;;;18.80;68.19;99110.91;2048128;28;19933;-42
2023/05/04 04:58:04;;;;;;;;;;;;;;;18.77;68.31;99107.78;2049111;28;20556;-43
2023/05/04 04:59:04;;;;;;;;;;;;;;;18.77;68.33;99108.63;2050584;28;20506;-44
2023/05/04 05:00:08;;;;;;;;;;;;;;;18.78;68.07;99104.06;2051556;28;19992;-45
2023/05/04 05:01:09;;;;;;;;;;;;;;;18.76;68.35;99106.97;2048394;28;19930;-45
2023/05/04 05:02:10;;;;;;;;;;;;;;;18.77;68.20;99107.78;2054063;28;19961;-46
2023/05/04 05:03:10;;;;;;;;;;;;;;;18.75;68.22;99114.19;2050235;28;19930;-45
2023/05/04 05:04:12;;;;;;;;;;;;;;;18.76;68.30;99112.34;2051192;28;19959;-43
2023/05/04 05:05:12;;;;;;;;;;;;;;;18.75;68.01;99110.69;2049433;28;19977;-44
2023/05/04 05:06:14;;;;;;;;;;;;;;;18.75;67.77;99108.00;2052838;28;20347;-45
2023/05/04 05:07:15;;;;;;;;;;;;;;;18.73;68.39;99110.00;2049547;28;19930;-45
2023/05/04 05:08:16;;;;;;;;;;;;;;;18.75;68.05;99113.38;2056630;28;19933;-45
2023/05/04 05:09:17;;;;;;;;;;;;;;;18.72;68.46;99105.66;2053791;28;19930;-44
2023/05/04 05:10:19;;;;;;;;;;;;;;;18.74;68.03;99114.38;2054549;28;19929;-45
2023/05/04 05:11:22;;;;;;;;;;;;;;;18.71;67.82;99114.75;2053030;28;20028;-44
2023/05/04 05:12:23;;;;;;;;;;;;;;;18.73;68.26;99112.69;2053256;28;19930;-45
2023/05/04 05:13:24;;;;;;;;;;;;;;;18.72;67.89;99117.25;2053165;28;20078;-43
2023/05/04 05:14:26;;;;;;;;;;;;;;;18.72;67.81;99119.06;2054294;28;19989;-46
2023/05/04 05:15:27;;;;;;;;;;;;;;;18.71;67.95;99114.75;2054888;28;19932;-44
2023/05/04 05:16:28;;;;;;;;;;;;;;;18.71;68.17;99114.75;2053745;28;20445;-44
2023/05/04 05:17:29;;;;;;;;;;;;;;;18.72;68.30;99119.06;2052876;28;19930;-45
2023/05/04 05:18:30;;;;;;;;;;;;;;;18.75;67.80;99118.75;2053549;28;19973;-47
2023/05/04 05:19:35;;;;;;;;;;;;;;;18.74;67.51;99114.38;2051085;28;19941;-48